Time;durP1;ratioP1;P1;durP2;ratioP2;P2;SDS_P1;SDS_P2;PMS_P1;PMS_P2;Temp;Humidity;BMP_temperature;BMP_pressure;BME280_temperature;BME280_humidity;BME280_pressure;Samples;Min_cycle;Max_cycle;Signal;HPM_P1;HPM_P2
2021/05/21 00:01:00;;;;;;;16.40;8.27;;;;;;;7.69;75.62;100377.69;3425514;84;31697;-88
2021/05/21 00:06:00;;;;;;;16.93;9.25;;;;;;;7.65;76.13;100369.97;3431940;84;101984;-89
2021/05/21 00:11:01;;;;;;;13.50;7.87;;;;;;;7.62;76.17;100365.19;3436365;84;31732;-88
2021/05/21 00:16:02;;;;;;;16.97;7.57;;;;;;;7.58;76.30;100355.53;3434191;84;99137;-89
2021/05/21 00:21:04;;;;;;;14.63;8.43;;;;;;;7.57;76.17;100360.80;3435511;84;31690;-88
2021/05/21 00:26:04;;;;;;;19.97;10.13;;;;;;;7.55;76.90;100355.45;3410803;84;98663;-89
2021/05/21 00:31:06;;;;;;;18.92;10.85;;;;;;;7.53;77.29;100349.55;3431759;84;29966;-89
2021/05/21 00:36:07;;;;;;;17.17;9.35;;;;;;;7.51;76.92;100350.47;3424582;84;99254;-88
2021/05/21 00:41:08;;;;;;;25.30;12.37;;;;;;;7.49;77.20;100351.41;3424325;84;34843;-88
2021/05/21 00:46:08;;;;;;;21.80;11.47;;;;;;;7.49;77.43;100350.86;3418860;84;99201;-88
2021/05/21 00:51:09;;;;;;;21.80;12.27;;;;;;;7.50;77.64;100351.63;3426461;84;25820;-88
2021/05/21 00:56:10;;;;;;;17.73;10.73;;;;;;;7.55;78.57;100351.35;3432565;83;99238;-87
2021/05/21 01:01:11;;;;;;;17.47;9.80;;;;;;;7.55;78.60;100349.42;3427118;84;34873;-88
2021/05/21 01:06:13;;;;;;;16.73;9.57;;;;;;;7.54;78.70;100349.77;3424593;84;98940;-88
2021/05/21 01:11:14;;;;;;;15.40;8.57;;;;;;;7.55;79.11;100332.18;3413564;84;35414;-87
2021/05/21 01:16:15;;;;;;;13.63;8.00;;;;;;;7.58;79.19;100329.52;3414755;84;99407;-88
2021/05/21 01:21:16;;;;;;;12.57;7.87;;;;;;;7.64;79.41;100336.29;3426280;84;35673;-89
2021/05/21 01:26:17;;;;;;;14.47;8.43;;;;;;;7.66;79.39;100327.16;3407291;84;98996;-88
2021/05/21 01:31:18;;;;;;;12.60;7.46;;;;;;;7.68;79.29;100319.95;3487254;83;35319;-89
2021/05/21 01:36:19;;;;;;;14.13;7.70;;;;;;;7.69;79.26;100318.20;3477646;82;98534;-88
2021/05/21 01:41:20;;;;;;;14.10;7.73;;;;;;;7.71;79.02;100311.00;3484990;83;26171;-87
2021/05/21 01:46:21;;;;;;;13.80;7.43;;;;;;;7.69;78.87;100310.58;3471457;82;98928;-88
2021/05/21 01:51:22;;;;;;;13.93;6.97;;;;;;;7.70;79.00;100304.72;3489461;83;32951;-87
2021/05/21 01:56:24;;;;;;;14.50;8.00;;;;;;;7.72;78.73;100298.89;3474955;83;99145;-89
2021/05/21 02:01:25;;;;;;;14.17;7.97;;;;;;;7.70;78.87;100291.02;3496452;83;26166;-89
2021/05/21 02:06:26;;;;;;;17.23;9.00;;;;;;;7.73;79.00;100281.30;3473634;83;98602;-89
2021/05/21 02:11:27;;;;;;;17.70;8.67;;;;;;;7.76;79.20;100275.10;3480519;83;32437;-87
2021/05/21 02:16:28;;;;;;;15.93;7.87;;;;;;;7.79;79.04;100274.39;3476172;82;98558;-87
2021/05/21 02:21:32;;;;;;;16.63;9.47;;;;;;;7.82;79.15;100270.35;3474979;83;32815;-87
2021/05/21 02:26:35;;;;;;;15.90;9.10;;;;;;;7.85;79.41;100269.61;3508598;81;99077;-86
2021/05/21 02:31:36;;;;;;;14.58;8.08;;;;;;;7.89;79.34;100262.25;3540211;81;33110;-87
2021/05/21 02:36:37;;;;;;;13.97;7.77;;;;;;;7.91;79.30;100250.94;3524078;81;98894;-88
2021/05/21 02:41:38;;;;;;;13.53;8.17;;;;;;;7.93;79.16;100242.58;3541675;81;33095;-88
2021/05/21 02:46:39;;;;;;;14.57;8.60;;;;;;;7.94;78.77;100244.16;3536511;80;98579;-88
2021/05/21 02:51:39;;;;;;;15.00;8.43;;;;;;;7.95;79.10;100234.77;3548335;81;32895;-88
2021/05/21 02:56:40;;;;;;;19.63;8.93;;;;;;;7.96;79.54;100232.23;3524859;81;99058;-89
2021/05/21 03:01:41;;;;;;;17.13;9.40;;;;;;;7.99;79.38;100217.83;3539859;81;32475;-88
2021/05/21 03:06:42;;;;;;;15.93;8.43;;;;;;;8.03;79.51;100213.77;3461246;83;98448;-88
2021/05/21 03:11:43;;;;;;;14.30;7.97;;;;;;;8.07;79.33;100209.16;3411419;85;28089;-88
2021/05/21 03:16:43;;;;;;;14.87;7.97;;;;;;;8.10;79.50;100204.30;3411513;85;98853;-88
2021/05/21 03:21:44;;;;;;;15.50;8.03;;;;;;;8.15;79.32;100206.16;3440269;84;26017;-89
2021/05/21 03:26:45;;;;;;;13.83;7.80;;;;;;;8.22;79.36;100208.24;3422192;84;98878;-88
2021/05/21 03:31:46;;;;;;;15.90;7.57;;;;;;;8.28;79.53;100210.92;3428550;84;26734;-86
2021/05/21 03:36:47;;;;;;;15.57;7.80;;;;;;;8.34;79.39;100210.81;3417408;84;99055;-88
2021/05/21 03:41:47;;;;;;;16.13;9.40;;;;;;;8.39;79.56;100201.69;3433428;84;26685;-87
2021/05/21 03:46:48;;;;;;;15.55;8.78;;;;;;;8.48;79.51;100208.28;3417671;84;98950;-88
2021/05/21 03:51:50;;;;;;;15.27;8.63;;;;;;;8.55;79.53;100205.64;3429797;84;33225;-88
2021/05/21 03:56:51;;;;;;;14.03;8.10;;;;;;;8.64;79.54;100193.28;3423208;83;99219;-87
2021/05/21 04:01:52;;;;;;;15.80;8.77;;;;;;;8.72;79.65;100188.69;3436707;84;26372;-85
2021/05/21 04:06:53;;;;;;;15.77;8.83;;;;;;;8.81;79.37;100182.33;3423146;84;98956;-87
2021/05/21 04:11:53;;;;;;;14.33;7.50;;;;;;;8.90;79.51;100181.48;3433782;84;33289;-90
2021/05/21 04:16:54;;;;;;;15.40;7.83;;;;;;;8.98;79.52;100179.84;3428552;84;99107;-86
2021/05/21 04:21:55;;;;;;;13.10;8.13;;;;;;;9.08;79.47;100167.41;3427665;84;33236;-87
2021/05/21 04:26:56;;;;;;;12.73;7.53;;;;;;;9.19;79.47;100152.66;3425036;83;98793;-88
2021/05/21 04:31:56;;;;;;;12.40;7.05;;;;;;;9.29;79.25;100154.75;3432778;84;33245;-87
2021/05/21 04:36:58;;;;;;;17.03;9.63;;;;;;;9.44;78.98;100152.95;3426909;84;98626;-86
2021/05/21 04:41:58;;;;;;;15.28;7.25;;;;;;;9.54;78.85;100149.53;3442364;84;33209;-87
2021/05/21 04:47:01;;;;;;;12.67;7.20;;;;;;;9.68;78.61;100148.28;3428217;84;99023;-87
2021/05/21 04:52:05;;;;;;;12.80;6.87;;;;;;;9.83;78.44;100134.89;3430932;84;33717;-88
2021/05/21 04:57:06;;;;;;;12.37;6.83;;;;;;;9.97;78.21;100139.93;3430514;84;99037;-87
2021/05/21 05:02:07;;;;;;;10.90;6.27;;;;;;;10.14;77.91;100125.56;3432744;84;31740;-87
2021/05/21 05:07:08;;;;;;;12.10;6.33;;;;;;;10.35;77.34;100116.70;3427683;84;99371;-86
2021/05/21 05:12:09;;;;;;;10.63;6.57;;;;;;;10.57;77.10;100134.93;3430608;84;31551;-88
2021/05/21 05:17:10;;;;;;;12.63;6.97;;;;;;;10.84;76.76;100126.03;3425563;84;99297;-87
2021/05/21 05:22:11;;;;;;;11.20;7.05;;;;;;;11.12;76.05;100119.27;3431785;84;26450;-87
2021/05/21 05:27:12;;;;;;;14.20;6.87;;;;;;;11.40;75.26;100113.07;3416885;84;99370;-86
2021/05/21 05:32:14;;;;;;;12.77;7.07;;;;;;;11.65;74.50;100107.84;3431435;84;31658;-87
2021/05/21 05:37:14;;;;;;;13.13;7.03;;;;;;;11.83;73.72;100107.26;3419957;84;99239;-87
2021/05/21 05:42:15;;;;;;;9.77;6.80;;;;;;;11.99;73.53;100110.42;3425209;84;31638;-87
2021/05/21 05:47:16;;;;;;;11.97;6.30;;;;;;;12.13;72.85;100104.91;3425957;84;98748;-86
2021/05/21 05:52:17;;;;;;;12.77;6.67;;;;;;;12.26;72.40;100090.13;3438582;84;27005;-86
2021/05/21 05:57:18;;;;;;;12.73;6.40;;;;;;;12.44;71.99;100093.03;3427101;84;99307;-83
2021/05/21 06:02:19;;;;;;;13.07;5.93;;;;;;;12.69;71.10;100085.49;3425902;84;25948;-87
2021/05/21 06:07:20;;;;;;;12.67;6.50;;;;;;;13.06;70.30;100076.70;3421549;84;99319;-85
2021/05/21 06:12:20;;;;;;;13.10;6.37;;;;;;;13.47;68.90;100074.91;3424738;84;34870;-87
2021/05/21 06:17:21;;;;;;;12.00;5.77;;;;;;;13.81;68.23;100065.58;3425849;84;99239;-85
2021/05/21 06:22:22;;;;;;;11.30;6.37;;;;;;;14.15;67.73;100055.40;3435173;84;34895;-84
2021/05/21 06:27:26;;;;;;;10.35;6.37;;;;;;;14.62;66.56;100057.33;3431813;84;98946;-85
2021/05/21 06:32:27;;;;;;;11.70;6.12;;;;;;;15.04;65.06;100044.94;3434596;84;35131;-86
2021/05/21 06:37:29;;;;;;;15.04;6.52;;;;;;;15.38;63.36;100033.20;3431972;84;98979;-89
2021/05/21 06:42:30;;;;;;;11.93;6.97;;;;;;;15.71;64.06;100030.91;3439597;84;32976;-87
2021/05/21 06:47:30;;;;;;;10.77;5.73;;;;;;;16.07;62.04;100029.12;3421682;84;99219;-83
2021/05/21 06:52:31;;;;;;;12.07;5.77;;;;;;;16.22;60.85;100022.88;3425866;84;28127;-83
2021/05/21 06:57:33;;;;;;;9.50;5.70;;;;;;;16.29;61.85;100023.36;3426132;84;98978;-82
2021/05/21 07:02:33;;;;;;;9.55;5.58;;;;;;;16.60;61.45;100013.64;3434278;84;32025;-82
2021/05/21 07:07:34;;;;;;;12.00;5.28;;;;;;;17.01;60.68;100000.09;3424639;84;98763;-85
2021/05/21 07:12:37;;;;;;;10.10;5.83;;;;;;;17.12;57.89;100000.63;3435967;84;27228;-82
2021/05/21 07:17:39;;;;;;;8.80;5.40;;;;;;;17.11;58.19;99997.06;3415237;84;99377;-83
2021/05/21 07:22:39;;;;;;;9.13;5.53;;;;;;;17.19;58.19;99980.41;3432729;84;26333;-85
2021/05/21 07:27:40;;;;;;;9.10;5.53;;;;;;;17.36;57.26;99977.03;3417259;84;98956;-81
2021/05/21 07:32:41;;;;;;;9.38;4.85;;;;;;;17.35;57.00;99965.73;3396447;85;32502;-84
2021/05/21 07:37:43;;;;;;;8.80;4.90;;;;;;;17.45;57.37;99960.55;3392564;85;98908;-83
2021/05/21 07:42:45;;;;;;;9.63;5.42;;;;;;;17.45;56.93;99958.54;3406877;85;28129;-85
2021/05/21 07:47:45;;;;;;;9.43;4.80;;;;;;;17.49;55.06;99952.91;3392017;85;98811;-83
2021/05/21 07:52:46;;;;;;;14.73;4.65;;;;;;;17.50;56.17;99944.11;3401016;85;28960;-82
2021/05/21 07:57:47;;;;;;;13.07;5.00;;;;;;;17.59;54.87;99944.89;3399304;83;98926;-86
2021/05/21 08:02:48;;;;;;;8.90;4.15;;;;;;;17.78;54.35;99933.67;3406145;85;26130;-84
2021/05/21 08:07:49;;;;;;;7.67;4.63;;;;;;;18.11;53.31;99931.59;3391512;84;98500;-86
2021/05/21 08:12:50;;;;;;;6.97;4.15;;;;;;;18.45;53.33;99922.09;3401304;85;32985;-85
2021/05/21 08:17:51;;;;;;;8.38;4.20;;;;;;;18.99;53.46;99914.48;3399627;85;98826;-83
2021/05/21 08:22:51;;;;;;;5.92;3.58;;;;;;;19.55;52.34;99908.48;3405681;85;32450;-83
2021/05/21 08:27:53;;;;;;;6.67;2.90;;;;;;;20.00;50.43;99905.51;3402431;85;98696;-83
2021/05/21 08:32:54;;;;;;;4.95;3.15;;;;;;;20.02;49.29;99902.27;3399894;86;31525;-84
2021/05/21 08:37:55;;;;;;;6.00;3.22;;;;;;;20.08;49.18;99887.30;3413383;86;99025;-82
2021/05/21 08:42:58;;;;;;;7.28;3.80;;;;;;;20.41;48.35;99885.67;3420839;86;32084;-83
2021/05/21 08:48:02;;;;;;;8.83;3.35;;;;;;;20.85;48.59;99882.17;3405372;86;98743;-85
2021/05/21 08:53:03;;;;;;;7.78;3.22;;;;;;;20.83;45.84;99870.07;3418986;85;32548;-85
2021/05/21 08:58:12;;;;;;;10.72;4.00;;;;;;;21.11;46.99;99858.38;3417972;86;102071;-84
2021/05/21 09:03:23;;;;;;;6.78;3.80;;;;;;;21.58;45.85;99851.16;3402125;86;32552;-85
2021/05/21 09:08:43;;;;;;;8.88;3.72;;;;;;;21.82;45.66;99838.16;3406616;86;98367;-89
2021/05/21 09:13:43;;;;;;;54.83;7.12;;;;;;;21.74;44.61;99828.49;3416261;86;32708;-84
2021/05/21 09:19:10;;;;;;;4.25;1.75;;;;;;;21.90;46.02;99812.01;3406875;85;98999;-84
2021/05/21 09:24:12;;;;;;;5.05;1.50;;;;;;;22.08;43.51;99807.13;3418971;86;27367;-82
2021/05/21 09:29:17;;;;;;;10.63;2.85;;;;;;;21.92;42.53;99808.11;3425141;84;98413;-84
2021/05/21 09:34:32;;;;;;;4.05;2.02;;;;;;;21.98;42.16;99795.81;3428224;84;32515;-83
2021/05/21 09:39:33;;;;;;;5.25;1.50;;;;;;;22.27;42.70;99792.45;3429150;84;32547;-82
2021/05/21 09:44:34;;;;;;;3.85;1.60;;;;;;;22.60;40.89;99786.30;3428448;84;99032;-85
2021/05/21 09:49:38;;;;;;;2.50;1.40;;;;;;;23.00;40.94;99787.51;3418983;84;32534;-84
2021/05/21 09:54:52;;;;;;;4.63;1.60;;;;;;;23.29;40.10;99779.27;3407117;84;99039;-86
2021/05/21 09:59:54;;;;;;;3.45;1.70;;;;;;;23.32;40.19;99767.06;3436823;84;32420;-81
2021/05/21 10:04:57;;;;;;;9.80;1.82;;;;;;;23.19;40.10;99754.52;3426741;84;99100;-83
2021/05/21 10:09:59;;;;;;;5.22;2.00;;;;;;;22.90;40.45;99759.38;3434614;84;33057;-85
2021/05/21 10:15:00;;;;;;;4.60;1.30;;;;;;;22.43;39.75;99755.04;3424171;84;99251;-85
2021/05/21 10:20:01;;;;;;;5.08;1.30;;;;;;;22.04;40.10;99746.90;3429953;84;33095;-88
2021/05/21 10:25:13;;;;;;;105.70;8.35;;;;;;;21.95;39.82;99718.89;3429052;84;98975;-84
2021/05/21 10:30:17;;;;;;;28.65;5.35;;;;;;;22.12;39.56;99727.88;3440994;84;32487;-80
2021/05/21 10:35:21;;;;;;;20.65;3.17;;;;;;;21.93;39.56;99711.59;3398223;84;99201;-84
2021/05/21 10:40:25;;;;;;;6.60;1.40;;;;;;;21.84;39.58;99706.00;3438805;84;32435;-85
2021/05/21 10:45:26;;;;;;;7.80;0.90;;;;;;;21.76;39.38;99704.17;3421763;84;99314;-88
2021/05/21 10:50:39;;;;;;;12.53;1.20;;;;;;;21.63;39.14;99703.52;3427160;84;32658;-90
2021/05/21 10:55:52;;;;;;;6.90;1.10;;;;;;;21.61;39.66;99682.83;3432398;84;98710;-87
2021/05/21 11:01:16;;;;;;;8.48;0.90;;;;;;;22.13;38.54;99684.59;3426039;84;33077;-85
2021/05/21 11:06:20;;;;;;;2.10;0.75;;;;;;;22.21;37.90;99670.40;3417698;84;98875;-86
2021/05/21 11:11:21;;;;;;;29.63;3.12;;;;;;;22.31;38.46;99680.94;3431330;84;32753;-83
2021/05/21 11:16:26;;;;;;;8.88;1.72;;;;;;;22.35;36.52;99654.92;3427443;84;99540;-85
2021/05/21 11:21:26;;;;;;;2.55;1.25;;;;;;;22.28;38.24;99647.62;3407247;84;32563;-85
2021/05/21 11:26:29;;;;;;;5.50;1.00;;;;;;;22.19;37.82;99638.48;3403075;84;98756;-85
2021/05/21 11:31:33;;;;;;;5.08;1.20;;;;;;;22.13;37.75;99608.16;3437268;84;26946;-82
2021/05/21 11:36:34;;;;;;;5.17;0.80;;;;;;;22.39;35.30;99617.67;3430617;84;98842;-85
2021/05/21 11:41:44;;;;;;;11.97;1.72;;;;;;;22.34;34.81;99613.48;3426895;84;32455;-85
2021/05/21 11:46:46;;;;;;;3.87;0.82;;;;;;;22.25;35.23;99602.34;3421084;84;98832;-87
2021/05/21 11:52:06;;;;;;;7.78;1.20;;;;;;;22.20;36.03;99612.80;3402772;84;32575;-88
2021/05/21 11:57:11;;;;;;;5.60;0.88;;;;;;;22.36;35.10;99610.98;3403563;84;98990;-87
2021/05/21 12:02:16;;;;;;;2.12;0.78;;;;;;;22.18;36.03;99571.07;3426000;84;32640;-87
2021/05/21 12:07:27;;;;;;;3.20;1.00;;;;;;;21.99;36.54;99576.61;3423755;84;98943;-85
2021/05/21 12:12:30;;;;;;;3.85;1.00;;;;;;;22.08;35.40;99572.37;3423485;84;32496;-85
2021/05/21 12:17:44;;;;;;;17.82;1.70;;;;;;;22.21;35.29;99568.09;3414566;84;98970;-87
2021/05/21 12:23:06;;;;;;;6.25;0.93;;;;;;;22.35;34.81;99556.14;3423398;84;33101;-89
2021/05/21 12:28:07;;;;;;;5.53;1.00;;;;;;;22.25;34.73;99550.47;3421739;84;98943;-85
2021/05/21 12:33:11;;;;;;;7.15;0.85;;;;;;;22.46;33.86;99548.00;3430187;84;32502;-85
2021/05/21 12:38:12;;;;;;;4.75;0.60;;;;;;;22.63;34.76;99527.32;3429574;84;98754;-86
2021/05/21 12:43:13;;;;;;;13.78;1.45;;;;;;;22.75;34.84;99519.27;3431979;84;32407;-86
2021/05/21 12:48:14;;;;;;;6.83;0.98;;;;;;;22.72;33.13;99525.84;3425640;84;98980;-90
2021/05/21 12:53:14;;;;;;;4.45;0.90;;;;;;;22.72;34.17;99502.01;3430127;84;32588;-87
2021/05/21 12:58:16;;;;;;;4.58;1.00;;;;;;;23.08;34.10;99505.23;3434005;84;99004;-88
2021/05/21 13:03:16;;;;;;;19.92;1.77;;;;;;;23.03;33.46;99505.91;3429946;84;32440;-88
2021/05/21 13:08:17;;;;;;;5.97;1.50;;;;;;;22.76;33.19;99496.34;3426770;84;99373;-87
2021/05/21 13:13:23;;;;;;;4.12;1.00;;;;;;;22.43;33.83;99499.88;3430029;84;31070;-89
2021/05/21 13:18:26;;;;;;;12.05;1.27;;;;;;;22.32;34.38;99503.85;3420529;84;99036;-85
2021/05/21 13:23:27;;;;;;;12.95;1.65;;;;;;;22.46;33.40;99510.79;3426183;84;33135;-85
2021/05/21 13:28:28;;;;;;;14.53;1.52;;;;;;;22.48;33.62;99502.66;3421394;82;99085;-84
2021/05/21 13:33:28;;;;;;;3.05;0.85;;;;;;;22.38;33.55;99494.14;3432618;84;33610;-87
2021/05/21 13:38:29;;;;;;;3.33;1.00;;;;;;;22.18;34.00;99485.59;3425050;84;98830;-90
2021/05/21 13:43:30;;;;;;;4.58;1.60;;;;;;;22.34;33.41;99483.11;3431173;84;33039;-85
2021/05/21 13:48:30;;;;;;;8.40;1.87;;;;;;;22.46;33.71;99465.92;3428012;84;98760;-86
2021/05/21 13:53:31;;;;;;;8.00;1.80;;;;;;;22.53;34.23;99487.98;3429634;84;26356;-88
2021/05/21 13:58:32;;;;;;;16.33;2.43;;;;;;;22.45;34.35;99452.52;3418210;84;98375;-88
2021/05/21 14:03:33;;;;;;;62.43;6.10;;;;;;;22.49;34.23;99443.30;3422341;84;26472;-84
2021/05/21 14:08:35;;;;;;;90.17;9.07;;;;;;;22.51;34.05;99460.41;3421495;84;99145;-84
2021/05/21 14:13:36;;;;;;;6.70;1.53;;;;;;;22.23;34.56;99475.13;3431544;84;25981;-87
2021/05/21 14:18:36;;;;;;;7.43;1.20;;;;;;;22.05;35.11;99459.20;3418354;84;98387;-87
2021/05/21 14:23:40;;;;;;;5.33;1.50;;;;;;;21.86;35.65;99467.56;3424727;84;26258;-88
2021/05/21 14:28:40;;;;;;;8.23;1.47;;;;;;;21.74;35.79;99445.41;3422110;84;99113;-86
2021/05/21 14:33:47;;;;;;;4.47;0.90;;;;;;;21.54;36.45;99439.56;3430072;84;26498;-86
2021/05/21 14:38:47;;;;;;;11.35;1.35;;;;;;;21.52;37.25;99428.84;3421656;84;98844;-85
2021/05/21 14:43:47;;;;;;;2.53;1.00;;;;;;;21.48;36.90;99432.42;3429931;84;25904;-92
2021/05/21 14:48:48;;;;;;;6.43;1.23;;;;;;;21.40;37.34;99429.84;3422761;84;98828;-82
2021/05/21 14:53:49;;;;;;;3.73;1.30;;;;;;;21.34;37.02;99426.75;3440479;84;29863;-90
2021/05/21 14:58:51;;;;;;;8.20;1.40;;;;;;;21.19;36.85;99420.30;3418612;84;98887;-87
2021/05/21 15:03:54;;;;;;;8.90;1.00;;;;;;;21.13;36.76;99420.16;3440209;84;26481;-86
2021/05/21 15:08:56;;;;;;;5.75;1.00;;;;;;;21.16;37.15;99409.44;3438415;84;98520;-88
2021/05/21 15:14:03;;;;;;;15.50;2.27;;;;;;;21.11;36.94;99398.09;3428989;84;26474;-89
2021/05/21 15:24:40;;;;;;;12.00;1.25;;;;;;;20.75;37.43;99400.36;3436846;84;26504;-83
2021/05/21 15:29:37;;;;;;;14.25;1.37;;;;;;;20.71;37.30;99398.98;3441764;84;26425;-90
2021/05/21 15:34:38;;;;;;;5.57;0.93;;;;;;;20.54;37.35;99389.39;3428054;84;98979;-87
2021/05/21 15:39:40;;;;;;;7.10;1.10;;;;;;;20.38;37.42;99389.09;3431405;84;26383;-88
2021/05/21 16:00:23;;;;;;;5.85;0.95;;;;;;;20.32;37.63;99372.04;3354143;84;26155;-88
2021/05/21 16:05:24;;;;;;;4.20;1.10;;;;;;;20.42;37.71;99376.34;3430448;84;98937;-88
2021/05/21 16:10:27;;;;;;;8.77;0.90;;;;;;;20.55;37.12;99372.12;3437680;84;26382;-86
2021/05/21 16:15:27;;;;;;;4.40;0.85;;;;;;;20.61;36.59;99369.48;3426756;84;98975;-89
2021/05/21 16:20:28;;;;;;;7.67;1.30;;;;;;;20.58;36.46;99369.81;3426828;84;26603;-84
2021/05/21 16:25:30;;;;;;;4.50;1.13;;;;;;;20.63;36.39;99390.14;3430234;84;99310;-87
2021/05/21 16:30:31;;;;;;;4.03;1.10;;;;;;;20.53;36.00;99373.23;3435085;84;26065;-86
2021/05/21 16:35:32;;;;;;;5.23;0.97;;;;;;;20.46;36.48;99379.77;3420455;84;99361;-84
2021/05/21 16:40:34;;;;;;;3.93;0.90;;;;;;;20.43;36.01;99361.16;3426285;84;25919;-87
2021/05/21 16:45:35;;;;;;;4.43;1.10;;;;;;;20.39;35.91;99368.91;3421646;84;98799;-86
2021/05/21 16:50:36;;;;;;;6.77;1.30;;;;;;;20.34;36.24;99359.77;3419990;84;25931;-85
2021/05/21 16:55:37;;;;;;;3.50;1.00;;;;;;;20.20;36.11;99356.98;3426441;84;98750;-82
2021/05/21 17:00:38;;;;;;;10.00;1.00;;;;;;;20.10;36.21;99364.45;3428580;84;26456;-87
2021/05/21 17:05:39;;;;;;;4.40;0.90;;;;;;;20.02;36.59;99361.17;3421871;84;98933;-85
2021/05/21 17:10:39;;;;;;;7.60;1.10;;;;;;;19.91;37.12;99351.70;3423580;84;33216;-84
2021/05/21 17:26:45;;;;;;;5.67;1.42;;;;;;;19.60;38.20;99349.64;3423848;84;98982;-86
2021/05/21 17:42:24;;;;;;;7.42;1.77;;;;;;;19.43;38.84;99340.80;3429849;84;26764;-85
2021/05/21 17:47:27;;;;;;;11.45;1.90;;;;;;;19.41;39.14;99328.55;3425433;84;99167;-87
2021/05/21 17:53:11;;;;;;;7.08;1.60;;;;;;;19.38;39.37;99326.67;3436994;84;25816;-89
2021/05/21 17:57:49;;;;;;;4.72;1.77;;;;;;;19.31;39.55;99326.37;3414455;84;98884;-87
2021/05/21 18:07:48;;;;;;;10.23;1.87;;;;;;;19.15;39.95;99336.38;3418181;84;99060;-89
2021/05/21 18:18:25;;;;;;;2.60;1.17;;;;;;;19.00;40.23;99321.45;3419894;84;98695;-87
2021/05/21 19:05:15;;;;;;;7.08;1.55;;;;;;;17.99;42.90;99336.50;3407806;84;98870;-86
2021/05/21 19:11:02;;;;;;;3.98;1.70;;;;;;;17.85;43.45;99355.88;3417318;84;26336;-85
2021/05/21 19:15:45;;;;;;;5.35;1.67;;;;;;;17.73;43.88;99353.14;3409899;84;98933;-82
2021/05/21 19:25:58;;;;;;;5.95;1.45;;;;;;;17.50;44.62;99360.50;3382824;84;98951;-90
2021/05/21 19:31:22;;;;;;;6.05;1.80;;;;;;;17.37;45.35;99374.40;3414084;83;26378;-83
2021/05/21 20:11:58;;;;;;;1.97;1.10;;;;;;;16.51;49.86;99397.55;3426593;84;25969;-86
2021/05/21 20:17:06;;;;;;;2.95;1.02;;;;;;;16.41;50.16;99391.70;3425725;84;98891;-85
2021/05/21 20:22:06;;;;;;;10.32;1.42;;;;;;;16.30;51.17;99393.97;3430104;84;26340;-85
2021/05/21 20:27:12;;;;;;;5.85;1.40;;;;;;;16.17;51.97;99398.71;3417902;84;98725;-86
2021/05/21 20:32:29;;;;;;;4.83;1.70;;;;;;;16.05;52.18;99398.06;3432340;84;25808;-84
2021/05/21 21:08:57;;;;;;;4.30;1.50;;;;;;;15.24;55.84;99398.55;3423102;84;98770;-89
2021/05/21 21:19:19;;;;;;;5.83;1.30;;;;;;;15.01;56.79;99387.04;3431276;84;98805;-87
2021/05/21 21:29:38;;;;;;;6.45;1.62;;;;;;;14.83;57.27;99392.81;3464932;83;98654;-88
2021/05/21 21:45:35;;;;;;;5.47;1.60;;;;;;;14.55;58.35;99396.97;3417512;85;98944;-85
2021/05/21 21:50:30;;;;;;;5.45;2.00;;;;;;;14.43;58.53;99400.98;3392302;85;25886;-85
2021/05/21 21:55:53;;;;;;;5.33;2.53;;;;;;;14.31;59.19;99409.34;3429533;83;98535;-87
2021/05/21 22:01:05;;;;;;;6.10;2.00;;;;;;;14.22;59.80;99418.81;3424942;84;26685;-87
2021/05/21 22:06:15;;;;;;;7.20;2.67;;;;;;;14.13;60.55;99437.16;3414021;84;99243;-87
2021/05/21 22:16:51;;;;;;;8.73;2.00;;;;;;;13.94;61.21;99473.27;3417408;84;98980;-86
2021/05/21 22:21:39;;;;;;;6.05;2.00;;;;;;;13.85;61.49;99488.23;3425173;84;25905;-87
2021/05/21 22:26:30;;;;;;;5.85;2.02;;;;;;;13.77;61.69;99477.13;3412367;84;98962;-85
2021/05/21 22:31:32;;;;;;;5.85;1.80;;;;;;;13.72;62.43;99477.60;3420850;84;33227;-88
2021/05/21 22:36:36;;;;;;;5.33;1.90;;;;;;;13.64;62.38;99472.61;3410824;84;98930;-94
2021/05/21 22:41:44;;;;;;;3.95;1.70;;;;;;;13.38;63.33;99447.95;3420911;84;25776;-93
2021/05/21 22:46:41;;;;;;;4.80;1.90;;;;;;;13.38;63.33;99447.95;3390306;84;99163;-92
2021/05/21 22:51:42;;;;;;;5.90;1.80;;;;;;;13.41;63.60;99449.10;3380343;85;26511;-92
2021/05/21 22:56:43;;;;;;;4.73;2.07;;;;;;;13.34;63.78;99463.80;3413021;84;98841;-92
2021/05/21 23:01:44;;;;;;;8.93;2.10;;;;;;;13.24;64.62;99455.69;3404183;84;33322;-93
2021/05/21 23:06:44;;;;;;;7.77;2.43;;;;;;;13.13;64.85;99458.59;3412248;84;99124;-92
2021/05/21 23:11:45;;;;;;;4.40;2.10;;;;;;;13.02;65.43;99442.02;3428827;84;33283;-92
2021/05/21 23:16:46;;;;;;;7.27;2.13;;;;;;;12.91;65.96;99438.59;3418524;84;98884;-92
2021/05/21 23:21:47;;;;;;;7.97;2.60;;;;;;;12.81;65.88;99443.66;3426886;84;33181;-93
2021/05/21 23:26:47;;;;;;;5.45;2.27;;;;;;;12.74;66.45;99459.70;3412470;84;98932;-93
2021/05/21 23:31:50;;;;;;;6.30;1.90;;;;;;;12.63;67.29;99459.65;3427133;84;32156;-92
2021/05/21 23:36:50;;;;;;;4.17;2.10;;;;;;;12.55;66.67;99438.88;3413692;84;98921;-93
2021/05/21 23:41:51;;;;;;;4.73;2.00;;;;;;;12.49;67.26;99454.33;3428180;83;32316;-92
2021/05/21 23:46:52;;;;;;;4.03;2.00;;;;;;;12.41;67.28;99463.86;3373415;83;98474;-93
2021/05/21 23:51:52;;;;;;;5.43;2.33;;;;;;;12.33;67.46;99456.27;3456803;84;31608;-92
2021/05/21 23:56:53;;;;;;;6.10;2.53;;;;;;;12.23;67.73;99449.50;3422649;84;98575;-91
